sensor_id;sensor_type;location;lat;lon;timestamp;P1;durP1;ratioP1;P2;durP2;ratioP2
27985;SDS011;15453;53.692;10.168;2023-05-10T00:00:54;4.05;;;2.40;;
27985;SDS011;15453;53.692;10.168;2023-05-10T00:03:20;5.35;;;2.78;;
27985;SDS011;15453;53.692;10.168;2023-05-10T00:05:45;3.80;;;2.42;;
27985;SDS011;15453;53.692;10.168;2023-05-10T00:08:10;4.25;;;2.47;;
27985;SDS011;15453;53.692;10.168;2023-05-10T00:10:35;4.60;;;2.53;;
27985;SDS011;15453;53.692;10.168;2023-05-10T00:13:02;6.95;;;2.90;;
27985;SDS011;15453;53.692;10.168;2023-05-10T00:15:27;7.47;;;2.78;;
27985;SDS011;15453;53.692;10.168;2023-05-10T00:17:53;3.92;;;2.80;;
27985;SDS011;15453;53.692;10.168;2023-05-10T00:20:18;4.10;;;2.90;;
27985;SDS011;15453;53.692;10.168;2023-05-10T00:22:43;7.28;;;2.67;;
27985;SDS011;15453;53.692;10.168;2023-05-10T00:25:08;3.45;;;2.20;;
27985;SDS011;15453;53.692;10.168;2023-05-10T00:27:35;6.20;;;3.22;;
27985;SDS011;15453;53.692;10.168;2023-05-10T00:30:00;5.60;;;3.00;;
27985;SDS011;15453;53.692;10.168;2023-05-10T00:32:25;6.40;;;3.13;;
27985;SDS011;15453;53.692;10.168;2023-05-10T00:34:51;5.20;;;2.70;;
27985;SDS011;15453;53.692;10.168;2023-05-10T00:37:16;3.97;;;2.75;;
27985;SDS011;15453;53.692;10.168;2023-05-10T00:39:41;4.80;;;2.50;;
27985;SDS011;15453;53.692;10.168;2023-05-10T00:42:06;7.50;;;2.83;;
27985;SDS011;15453;53.692;10.168;2023-05-10T00:44:32;7.25;;;2.72;;
27985;SDS011;15453;53.692;10.168;2023-05-10T00:46:57;4.70;;;2.65;;
27985;SDS011;15453;53.692;10.168;2023-05-10T00:49:24;4.95;;;2.65;;
27985;SDS011;15453;53.692;10.168;2023-05-10T00:51:50;4.07;;;2.42;;
27985;SDS011;15453;53.692;10.168;2023-05-10T00:54:15;3.97;;;2.40;;
27985;SDS011;15453;53.692;10.168;2023-05-10T00:56:41;3.55;;;2.58;;
27985;SDS011;15453;53.692;10.168;2023-05-10T00:59:07;5.63;;;2.78;;
27985;SDS011;15453;53.692;10.168;2023-05-10T01:01:33;4.18;;;2.55;;
27985;SDS011;15453;53.692;10.168;2023-05-10T01:04:00;6.63;;;2.47;;
27985;SDS011;15453;53.692;10.168;2023-05-10T01:06:25;4.88;;;2.65;;
27985;SDS011;15453;53.692;10.168;2023-05-10T01:08:51;3.80;;;2.60;;
27985;SDS011;15453;53.692;10.168;2023-05-10T01:11:16;4.82;;;2.78;;
27985;SDS011;15453;53.692;10.168;2023-05-10T01:13:41;5.40;;;2.30;;
27985;SDS011;15453;53.692;10.168;2023-05-10T01:16:08;4.90;;;2.65;;
27985;SDS011;15453;53.692;10.168;2023-05-10T01:18:38;4.80;;;2.72;;
27985;SDS011;15453;53.692;10.168;2023-05-10T01:26:58;8.60;;;2.35;;
27985;SDS011;15453;53.692;10.168;2023-05-10T01:32:06;4.85;;;2.80;;
27985;SDS011;15453;53.692;10.168;2023-05-10T01:34:44;7.18;;;2.30;;
27985;SDS011;15453;53.692;10.168;2023-05-10T01:37:49;3.10;;;2.40;;
27985;SDS011;15453;53.692;10.168;2023-05-10T01:42:58;5.40;;;2.40;;
27985;SDS011;15453;53.692;10.168;2023-05-10T01:48:24;5.97;;;2.95;;
27985;SDS011;15453;53.692;10.168;2023-05-10T01:50:52;6.47;;;2.85;;
27985;SDS011;15453;53.692;10.168;2023-05-10T01:53:18;5.05;;;3.08;;
27985;SDS011;15453;53.692;10.168;2023-05-10T01:55:46;8.80;;;3.10;;
27985;SDS011;15453;53.692;10.168;2023-05-10T01:58:15;4.72;;;2.63;;
27985;SDS011;15453;53.692;10.168;2023-05-10T02:00:45;3.97;;;2.58;;
27985;SDS011;15453;53.692;10.168;2023-05-10T02:03:12;4.20;;;2.70;;
27985;SDS011;15453;53.692;10.168;2023-05-10T02:05:40;5.80;;;2.25;;
27985;SDS011;15453;53.692;10.168;2023-05-10T02:08:07;5.70;;;2.60;;
27985;SDS011;15453;53.692;10.168;2023-05-10T02:10:34;5.75;;;3.28;;
27985;SDS011;15453;53.692;10.168;2023-05-10T02:13:00;5.75;;;3.08;;
27985;SDS011;15453;53.692;10.168;2023-05-10T02:15:27;6.88;;;2.80;;
27985;SDS011;15453;53.692;10.168;2023-05-10T02:17:54;6.68;;;2.88;;
27985;SDS011;15453;53.692;10.168;2023-05-10T02:20:21;5.45;;;2.80;;
27985;SDS011;15453;53.692;10.168;2023-05-10T02:22:49;6.32;;;3.30;;
27985;SDS011;15453;53.692;10.168;2023-05-10T02:25:16;5.75;;;2.92;;
27985;SDS011;15453;53.692;10.168;2023-05-10T02:27:44;6.45;;;2.78;;
27985;SDS011;15453;53.692;10.168;2023-05-10T02:30:09;6.00;;;2.95;;
27985;SDS011;15453;53.692;10.168;2023-05-10T02:32:36;7.20;;;2.92;;
27985;SDS011;15453;53.692;10.168;2023-05-10T02:35:02;6.82;;;3.33;;
27985;SDS011;15453;53.692;10.168;2023-05-10T02:37:28;4.43;;;2.78;;
27985;SDS011;15453;53.692;10.168;2023-05-10T02:39:54;5.55;;;2.80;;
27985;SDS011;15453;53.692;10.168;2023-05-10T02:42:25;5.90;;;2.65;;
27985;SDS011;15453;53.692;10.168;2023-05-10T02:44:53;4.40;;;2.95;;
27985;SDS011;15453;53.692;10.168;2023-05-10T02:47:24;5.80;;;3.05;;
27985;SDS011;15453;53.692;10.168;2023-05-10T02:49:49;8.07;;;3.42;;
27985;SDS011;15453;53.692;10.168;2023-05-10T02:52:16;5.57;;;2.60;;
27985;SDS011;15453;53.692;10.168;2023-05-10T02:54:48;4.32;;;2.80;;
27985;SDS011;15453;53.692;10.168;2023-05-10T02:57:16;7.45;;;3.22;;
27985;SDS011;15453;53.692;10.168;2023-05-10T02:59:46;4.65;;;3.42;;
27985;SDS011;15453;53.692;10.168;2023-05-10T03:02:14;6.60;;;2.95;;
27985;SDS011;15453;53.692;10.168;2023-05-10T03:04:39;9.27;;;2.78;;
27985;SDS011;15453;53.692;10.168;2023-05-10T03:07:05;4.70;;;3.22;;
27985;SDS011;15453;53.692;10.168;2023-05-10T03:09:31;4.50;;;3.13;;
27985;SDS011;15453;53.692;10.168;2023-05-10T03:12:25;7.15;;;3.00;;
27985;SDS011;15453;53.692;10.168;2023-05-10T03:15:08;4.55;;;2.90;;
27985;SDS011;15453;53.692;10.168;2023-05-10T03:20:36;5.55;;;3.10;;
27985;SDS011;15453;53.692;10.168;2023-05-10T03:23:13;8.93;;;2.83;;
27985;SDS011;15453;53.692;10.168;2023-05-10T03:25:44;8.02;;;3.42;;
27985;SDS011;15453;53.692;10.168;2023-05-10T03:28:12;4.90;;;3.05;;
27985;SDS011;15453;53.692;10.168;2023-05-10T03:30:40;8.10;;;3.03;;
27985;SDS011;15453;53.692;10.168;2023-05-10T03:33:06;6.15;;;3.30;;
27985;SDS011;15453;53.692;10.168;2023-05-10T03:35:32;4.93;;;2.95;;
27985;SDS011;15453;53.692;10.168;2023-05-10T03:37:57;4.88;;;3.00;;
27985;SDS011;15453;53.692;10.168;2023-05-10T03:40:23;6.20;;;3.30;;
27985;SDS011;15453;53.692;10.168;2023-05-10T03:42:48;9.07;;;3.60;;
27985;SDS011;15453;53.692;10.168;2023-05-10T03:45:14;5.20;;;3.60;;
27985;SDS011;15453;53.692;10.168;2023-05-10T03:47:39;4.20;;;3.22;;
27985;SDS011;15453;53.692;10.168;2023-05-10T03:50:05;5.78;;;3.50;;
27985;SDS011;15453;53.692;10.168;2023-05-10T03:52:31;6.78;;;3.20;;
27985;SDS011;15453;53.692;10.168;2023-05-10T03:54:56;4.22;;;2.78;;
27985;SDS011;15453;53.692;10.168;2023-05-10T03:57:22;4.30;;;3.08;;
27985;SDS011;15453;53.692;10.168;2023-05-10T03:59:47;6.80;;;3.45;;
27985;SDS011;15453;53.692;10.168;2023-05-10T04:02:12;4.90;;;3.53;;
27985;SDS011;15453;53.692;10.168;2023-05-10T04:04:37;6.65;;;3.47;;
27985;SDS011;15453;53.692;10.168;2023-05-10T04:07:02;5.70;;;3.22;;
27985;SDS011;15453;53.692;10.168;2023-05-10T04:09:28;5.10;;;3.03;;
27985;SDS011;15453;53.692;10.168;2023-05-10T04:11:53;5.40;;;3.35;;
27985;SDS011;15453;53.692;10.168;2023-05-10T04:14:18;7.70;;;3.60;;
27985;SDS011;15453;53.692;10.168;2023-05-10T04:16:44;4.90;;;3.03;;
27985;SDS011;15453;53.692;10.168;2023-05-10T04:19:09;5.70;;;3.45;;
27985;SDS011;15453;53.692;10.168;2023-05-10T04:21:35;4.35;;;2.90;;
27985;SDS011;15453;53.692;10.168;2023-05-10T04:24:01;6.47;;;3.15;;
27985;SDS011;15453;53.692;10.168;2023-05-10T04:26:26;7.90;;;3.70;;
27985;SDS011;15453;53.692;10.168;2023-05-10T04:28:51;4.68;;;3.10;;
27985;SDS011;15453;53.692;10.168;2023-05-10T04:31:17;4.38;;;3.10;;
27985;SDS011;15453;53.692;10.168;2023-05-10T04:33:42;5.88;;;3.63;;
27985;SDS011;15453;53.692;10.168;2023-05-10T04:36:07;6.00;;;3.30;;
27985;SDS011;15453;53.692;10.168;2023-05-10T04:38:33;5.47;;;3.40;;
27985;SDS011;15453;53.692;10.168;2023-05-10T04:41:05;6.60;;;3.65;;
27985;SDS011;15453;53.692;10.168;2023-05-10T04:43:36;6.47;;;3.70;;
27985;SDS011;15453;53.692;10.168;2023-05-10T04:46:01;5.30;;;3.08;;
27985;SDS011;15453;53.692;10.168;2023-05-10T04:48:27;3.13;;;2.83;;
27985;SDS011;15453;53.692;10.168;2023-05-10T04:50:52;7.72;;;3.05;;
27985;SDS011;15453;53.692;10.168;2023-05-10T04:53:17;5.97;;;3.40;;
27985;SDS011;15453;53.692;10.168;2023-05-10T04:55:42;3.88;;;3.10;;
27985;SDS011;15453;53.692;10.168;2023-05-10T04:58:08;6.07;;;3.38;;
27985;SDS011;15453;53.692;10.168;2023-05-10T05:00:33;6.72;;;3.85;;
27985;SDS011;15453;53.692;10.168;2023-05-10T05:02:59;5.22;;;3.42;;
27985;SDS011;15453;53.692;10.168;2023-05-10T05:05:24;6.75;;;3.50;;
27985;SDS011;15453;53.692;10.168;2023-05-10T05:07:50;6.45;;;3.35;;
27985;SDS011;15453;53.692;10.168;2023-05-10T05:10:15;8.30;;;3.15;;
27985;SDS011;15453;53.692;10.168;2023-05-10T05:12:40;6.50;;;3.60;;
27985;SDS011;15453;53.692;10.168;2023-05-10T05:15:06;4.43;;;2.92;;
27985;SDS011;15453;53.692;10.168;2023-05-10T05:17:33;4.65;;;3.10;;
27985;SDS011;15453;53.692;10.168;2023-05-10T05:19:58;4.97;;;3.42;;
27985;SDS011;15453;53.692;10.168;2023-05-10T05:22:23;6.75;;;2.92;;
27985;SDS011;15453;53.692;10.168;2023-05-10T05:24:55;5.75;;;3.25;;
27985;SDS011;15453;53.692;10.168;2023-05-10T05:27:21;5.63;;;3.45;;
27985;SDS011;15453;53.692;10.168;2023-05-10T05:29:49;5.25;;;3.72;;
27985;SDS011;15453;53.692;10.168;2023-05-10T05:32:15;6.22;;;3.17;;
27985;SDS011;15453;53.692;10.168;2023-05-10T05:34:40;6.68;;;3.08;;
27985;SDS011;15453;53.692;10.168;2023-05-10T05:37:05;4.80;;;3.03;;
27985;SDS011;15453;53.692;10.168;2023-05-10T05:39:31;7.20;;;3.22;;
27985;SDS011;15453;53.692;10.168;2023-05-10T05:41:56;4.45;;;3.22;;
27985;SDS011;15453;53.692;10.168;2023-05-10T05:44:21;5.22;;;3.40;;
27985;SDS011;15453;53.692;10.168;2023-05-10T05:46:46;5.10;;;3.55;;
27985;SDS011;15453;53.692;10.168;2023-05-10T05:49:11;5.95;;;3.40;;
27985;SDS011;15453;53.692;10.168;2023-05-10T05:51:37;6.57;;;3.33;;
27985;SDS011;15453;53.692;10.168;2023-05-10T05:54:02;4.75;;;3.35;;
27985;SDS011;15453;53.692;10.168;2023-05-10T05:56:29;8.35;;;3.53;;
27985;SDS011;15453;53.692;10.168;2023-05-10T05:58:54;6.15;;;3.65;;
27985;SDS011;15453;53.692;10.168;2023-05-10T06:01:19;7.68;;;2.97;;
27985;SDS011;15453;53.692;10.168;2023-05-10T06:03:45;10.50;;;3.90;;
27985;SDS011;15453;53.692;10.168;2023-05-10T06:06:10;4.97;;;3.55;;
27985;SDS011;15453;53.692;10.168;2023-05-10T06:08:36;5.18;;;3.58;;
27985;SDS011;15453;53.692;10.168;2023-05-10T06:11:01;4.70;;;3.15;;
27985;SDS011;15453;53.692;10.168;2023-05-10T06:13:26;6.72;;;3.53;;
27985;SDS011;15453;53.692;10.168;2023-05-10T06:15:57;4.82;;;3.25;;
27985;SDS011;15453;53.692;10.168;2023-05-10T06:18:23;5.93;;;3.78;;
27985;SDS011;15453;53.692;10.168;2023-05-10T06:20:49;5.97;;;3.63;;
27985;SDS011;15453;53.692;10.168;2023-05-10T06:23:15;9.15;;;3.90;;
27985;SDS011;15453;53.692;10.168;2023-05-10T06:25:40;6.53;;;3.72;;
27985;SDS011;15453;53.692;10.168;2023-05-10T06:28:05;4.85;;;3.33;;
27985;SDS011;15453;53.692;10.168;2023-05-10T06:30:31;4.03;;;3.35;;
27985;SDS011;15453;53.692;10.168;2023-05-10T06:32:56;6.28;;;3.40;;
27985;SDS011;15453;53.692;10.168;2023-05-10T06:35:21;8.93;;;3.75;;
27985;SDS011;15453;53.692;10.168;2023-05-10T06:37:47;5.32;;;3.47;;
27985;SDS011;15453;53.692;10.168;2023-05-10T06:40:12;8.93;;;3.78;;
27985;SDS011;15453;53.692;10.168;2023-05-10T06:42:38;7.10;;;3.83;;
27985;SDS011;15453;53.692;10.168;2023-05-10T06:45:03;4.63;;;3.03;;
27985;SDS011;15453;53.692;10.168;2023-05-10T06:47:29;7.50;;;3.47;;
27985;SDS011;15453;53.692;10.168;2023-05-10T06:49:54;8.07;;;3.15;;
27985;SDS011;15453;53.692;10.168;2023-05-10T06:52:20;4.82;;;3.58;;
27985;SDS011;15453;53.692;10.168;2023-05-10T06:54:45;4.82;;;3.47;;
27985;SDS011;15453;53.692;10.168;2023-05-10T06:57:11;6.30;;;3.45;;
27985;SDS011;15453;53.692;10.168;2023-05-10T06:59:36;4.93;;;3.30;;
27985;SDS011;15453;53.692;10.168;2023-05-10T07:02:01;4.45;;;3.03;;
27985;SDS011;15453;53.692;10.168;2023-05-10T07:04:27;5.80;;;4.00;;
27985;SDS011;15453;53.692;10.168;2023-05-10T07:06:52;8.75;;;3.92;;
27985;SDS011;15453;53.692;10.168;2023-05-10T07:09:18;7.75;;;3.05;;
27985;SDS011;15453;53.692;10.168;2023-05-10T07:11:43;5.22;;;3.28;;
27985;SDS011;15453;53.692;10.168;2023-05-10T07:14:08;7.30;;;3.33;;
27985;SDS011;15453;53.692;10.168;2023-05-10T07:16:33;4.88;;;3.28;;
27985;SDS011;15453;53.692;10.168;2023-05-10T07:18:59;5.10;;;3.10;;
27985;SDS011;15453;53.692;10.168;2023-05-10T07:21:24;6.15;;;2.95;;
27985;SDS011;15453;53.692;10.168;2023-05-10T07:23:49;4.25;;;2.85;;
27985;SDS011;15453;53.692;10.168;2023-05-10T07:26:15;12.27;;;3.50;;
27985;SDS011;15453;53.692;10.168;2023-05-10T07:28:40;7.82;;;3.08;;
27985;SDS011;15453;53.692;10.168;2023-05-10T07:31:06;3.88;;;3.15;;
27985;SDS011;15453;53.692;10.168;2023-05-10T07:33:31;4.07;;;3.08;;
27985;SDS011;15453;53.692;10.168;2023-05-10T07:35:57;3.63;;;3.15;;
27985;SDS011;15453;53.692;10.168;2023-05-10T07:38:22;5.90;;;3.35;;
27985;SDS011;15453;53.692;10.168;2023-05-10T07:40:48;7.72;;;3.60;;
27985;SDS011;15453;53.692;10.168;2023-05-10T07:43:13;4.30;;;2.78;;
27985;SDS011;15453;53.692;10.168;2023-05-10T07:45:38;6.53;;;3.28;;
27985;SDS011;15453;53.692;10.168;2023-05-10T07:48:04;4.10;;;2.97;;
27985;SDS011;15453;53.692;10.168;2023-05-10T07:50:29;5.28;;;3.25;;
27985;SDS011;15453;53.692;10.168;2023-05-10T07:52:55;4.60;;;3.03;;
27985;SDS011;15453;53.692;10.168;2023-05-10T07:55:20;7.60;;;3.13;;
27985;SDS011;15453;53.692;10.168;2023-05-10T07:57:48;7.43;;;3.28;;
27985;SDS011;15453;53.692;10.168;2023-05-10T08:00:13;4.75;;;2.88;;
27985;SDS011;15453;53.692;10.168;2023-05-10T08:02:42;4.05;;;3.25;;
27985;SDS011;15453;53.692;10.168;2023-05-10T08:05:08;5.45;;;2.80;;
27985;SDS011;15453;53.692;10.168;2023-05-10T08:07:33;5.28;;;2.88;;
27985;SDS011;15453;53.692;10.168;2023-05-10T08:09:59;4.80;;;3.08;;
27985;SDS011;15453;53.692;10.168;2023-05-10T08:12:24;5.50;;;3.38;;
27985;SDS011;15453;53.692;10.168;2023-05-10T08:14:50;5.82;;;3.33;;
27985;SDS011;15453;53.692;10.168;2023-05-10T08:17:15;5.68;;;3.17;;
27985;SDS011;15453;53.692;10.168;2023-05-10T08:19:40;5.28;;;3.40;;
27985;SDS011;15453;53.692;10.168;2023-05-10T08:22:05;6.80;;;3.35;;
27985;SDS011;15453;53.692;10.168;2023-05-10T08:24:31;7.45;;;3.50;;
27985;SDS011;15453;53.692;10.168;2023-05-10T08:26:56;5.45;;;3.30;;
27985;SDS011;15453;53.692;10.168;2023-05-10T08:29:22;6.88;;;3.33;;
27985;SDS011;15453;53.692;10.168;2023-05-10T08:31:47;3.92;;;3.08;;
27985;SDS011;15453;53.692;10.168;2023-05-10T08:34:12;5.07;;;3.58;;
27985;SDS011;15453;53.692;10.168;2023-05-10T08:36:37;3.95;;;3.35;;
27985;SDS011;15453;53.692;10.168;2023-05-10T08:39:03;5.05;;;3.28;;
27985;SDS011;15453;53.692;10.168;2023-05-10T08:41:28;7.85;;;3.45;;
27985;SDS011;15453;53.692;10.168;2023-05-10T08:43:54;5.95;;;3.50;;
27985;SDS011;15453;53.692;10.168;2023-05-10T08:46:21;7.13;;;3.55;;
27985;SDS011;15453;53.692;10.168;2023-05-10T08:48:48;4.85;;;3.35;;
27985;SDS011;15453;53.692;10.168;2023-05-10T08:51:17;5.90;;;3.00;;
27985;SDS011;15453;53.692;10.168;2023-05-10T08:53:44;5.95;;;3.38;;
27985;SDS011;15453;53.692;10.168;2023-05-10T08:56:09;7.38;;;4.10;;
27985;SDS011;15453;53.692;10.168;2023-05-10T08:58:35;9.18;;;3.47;;
27985;SDS011;15453;53.692;10.168;2023-05-10T09:01:01;5.25;;;3.58;;
27985;SDS011;15453;53.692;10.168;2023-05-10T09:03:27;4.60;;;3.45;;
27985;SDS011;15453;53.692;10.168;2023-05-10T09:05:53;4.65;;;3.42;;
27985;SDS011;15453;53.692;10.168;2023-05-10T09:08:20;6.53;;;3.13;;
27985;SDS011;15453;53.692;10.168;2023-05-10T09:10:46;4.45;;;3.20;;
27985;SDS011;15453;53.692;10.168;2023-05-10T09:13:12;6.68;;;3.30;;
27985;SDS011;15453;53.692;10.168;2023-05-10T09:15:40;7.75;;;3.05;;
27985;SDS011;15453;53.692;10.168;2023-05-10T09:18:06;5.18;;;3.50;;
27985;SDS011;15453;53.692;10.168;2023-05-10T09:20:31;6.50;;;3.50;;
27985;SDS011;15453;53.692;10.168;2023-05-10T09:22:56;8.45;;;3.13;;
27985;SDS011;15453;53.692;10.168;2023-05-10T09:25:22;4.20;;;3.53;;
27985;SDS011;15453;53.692;10.168;2023-05-10T09:27:47;7.10;;;3.40;;
27985;SDS011;15453;53.692;10.168;2023-05-10T09:30:17;7.13;;;3.58;;
27985;SDS011;15453;53.692;10.168;2023-05-10T09:32:50;5.32;;;3.63;;
27985;SDS011;15453;53.692;10.168;2023-05-10T09:35:16;4.53;;;3.20;;
27985;SDS011;15453;53.692;10.168;2023-05-10T09:37:46;5.53;;;3.40;;
27985;SDS011;15453;53.692;10.168;2023-05-10T09:40:25;7.43;;;3.78;;
27985;SDS011;15453;53.692;10.168;2023-05-10T09:42:56;4.85;;;3.50;;
27985;SDS011;15453;53.692;10.168;2023-05-10T09:45:25;5.40;;;3.30;;
27985;SDS011;15453;53.692;10.168;2023-05-10T09:47:51;5.70;;;3.25;;
27985;SDS011;15453;53.692;10.168;2023-05-10T09:50:16;4.40;;;3.13;;
27985;SDS011;15453;53.692;10.168;2023-05-10T09:52:55;5.47;;;3.10;;
27985;SDS011;15453;53.692;10.168;2023-05-10T09:55:45;5.68;;;3.00;;
27985;SDS011;15453;53.692;10.168;2023-05-10T09:58:10;4.20;;;3.30;;
27985;SDS011;15453;53.692;10.168;2023-05-10T10:00:37;4.70;;;3.40;;
27985;SDS011;15453;53.692;10.168;2023-05-10T10:03:05;4.22;;;2.83;;
27985;SDS011;15453;53.692;10.168;2023-05-10T10:05:34;7.47;;;3.38;;
27985;SDS011;15453;53.692;10.168;2023-05-10T10:08:01;5.07;;;3.47;;
27985;SDS011;15453;53.692;10.168;2023-05-10T10:10:28;6.90;;;3.33;;
27985;SDS011;15453;53.692;10.168;2023-05-10T10:12:54;5.13;;;3.67;;
27985;SDS011;15453;53.692;10.168;2023-05-10T10:15:20;5.55;;;3.88;;
27985;SDS011;15453;53.692;10.168;2023-05-10T10:17:46;6.88;;;3.33;;
27985;SDS011;15453;53.692;10.168;2023-05-10T10:20:13;7.35;;;3.88;;
27985;SDS011;15453;53.692;10.168;2023-05-10T10:22:39;5.30;;;3.70;;
27985;SDS011;15453;53.692;10.168;2023-05-10T10:25:05;6.97;;;3.60;;
27985;SDS011;15453;53.692;10.168;2023-05-10T10:27:36;6.28;;;3.90;;
27985;SDS011;15453;53.692;10.168;2023-05-10T10:30:30;4.43;;;3.53;;
27985;SDS011;15453;53.692;10.168;2023-05-10T10:36:05;9.40;;;4.38;;
27985;SDS011;15453;53.692;10.168;2023-05-10T10:41:12;6.03;;;4.03;;
27985;SDS011;15453;53.692;10.168;2023-05-10T10:49:50;8.88;;;4.63;;
27985;SDS011;15453;53.692;10.168;2023-05-10T10:57:54;6.47;;;4.50;;
27985;SDS011;15453;53.692;10.168;2023-05-10T11:00:31;11.10;;;5.18;;
27985;SDS011;15453;53.692;10.168;2023-05-10T11:08:09;9.95;;;6.72;;
27985;SDS011;15453;53.692;10.168;2023-05-10T11:10:36;7.38;;;5.68;;
27985;SDS011;15453;53.692;10.168;2023-05-10T11:13:03;8.25;;;5.38;;
27985;SDS011;15453;53.692;10.168;2023-05-10T11:15:34;7.35;;;4.90;;
27985;SDS011;15453;53.692;10.168;2023-05-10T11:21:02;10.27;;;5.10;;
27985;SDS011;15453;53.692;10.168;2023-05-10T11:23:33;6.10;;;5.28;;
27985;SDS011;15453;53.692;10.168;2023-05-10T11:26:13;7.82;;;5.10;;
27985;SDS011;15453;53.692;10.168;2023-05-10T11:28:46;8.70;;;5.97;;
27985;SDS011;15453;53.692;10.168;2023-05-10T11:31:16;8.73;;;5.82;;
27985;SDS011;15453;53.692;10.168;2023-05-10T11:33:42;6.75;;;5.32;;
27985;SDS011;15453;53.692;10.168;2023-05-10T11:36:13;13.35;;;9.68;;
27985;SDS011;15453;53.692;10.168;2023-05-10T11:38:43;9.18;;;5.88;;
27985;SDS011;15453;53.692;10.168;2023-05-10T11:41:09;8.38;;;5.75;;
27985;SDS011;15453;53.692;10.168;2023-05-10T11:43:36;7.10;;;5.20;;
27985;SDS011;15453;53.692;10.168;2023-05-10T11:46:04;7.18;;;6.10;;
27985;SDS011;15453;53.692;10.168;2023-05-10T11:48:30;6.60;;;5.63;;
27985;SDS011;15453;53.692;10.168;2023-05-10T11:50:56;5.85;;;5.03;;
27985;SDS011;15453;53.692;10.168;2023-05-10T11:53:22;6.65;;;5.28;;
27985;SDS011;15453;53.692;10.168;2023-05-10T11:55:48;6.53;;;5.22;;
27985;SDS011;15453;53.692;10.168;2023-05-10T11:58:13;7.53;;;5.60;;
27985;SDS011;15453;53.692;10.168;2023-05-10T12:00:38;9.23;;;5.70;;
27985;SDS011;15453;53.692;10.168;2023-05-10T12:03:04;7.45;;;5.55;;
27985;SDS011;15453;53.692;10.168;2023-05-10T12:05:31;9.25;;;5.80;;
27985;SDS011;15453;53.692;10.168;2023-05-10T12:08:11;7.78;;;6.03;;
27985;SDS011;15453;53.692;10.168;2023-05-10T12:10:37;8.15;;;5.78;;
27985;SDS011;15453;53.692;10.168;2023-05-10T12:13:02;10.38;;;6.28;;
27985;SDS011;15453;53.692;10.168;2023-05-10T12:15:28;10.50;;;6.10;;
27985;SDS011;15453;53.692;10.168;2023-05-10T12:17:53;11.45;;;6.93;;
27985;SDS011;15453;53.692;10.168;2023-05-10T12:20:22;7.43;;;6.05;;
27985;SDS011;15453;53.692;10.168;2023-05-10T12:25:19;9.95;;;7.22;;
27985;SDS011;15453;53.692;10.168;2023-05-10T12:27:52;8.38;;;6.03;;
27985;SDS011;15453;53.692;10.168;2023-05-10T12:30:23;7.75;;;5.97;;
27985;SDS011;15453;53.692;10.168;2023-05-10T12:32:52;9.30;;;5.50;;
27985;SDS011;15453;53.692;10.168;2023-05-10T12:35:18;6.30;;;5.10;;
27985;SDS011;15453;53.692;10.168;2023-05-10T12:37:48;7.38;;;5.90;;
27985;SDS011;15453;53.692;10.168;2023-05-10T12:40:15;6.95;;;5.43;;
27985;SDS011;15453;53.692;10.168;2023-05-10T12:42:40;6.95;;;5.20;;
27985;SDS011;15453;53.692;10.168;2023-05-10T12:45:06;9.15;;;5.30;;
27985;SDS011;15453;53.692;10.168;2023-05-10T12:47:33;10.98;;;6.03;;
27985;SDS011;15453;53.692;10.168;2023-05-10T12:49:59;8.77;;;5.85;;
27985;SDS011;15453;53.692;10.168;2023-05-10T12:52:25;8.95;;;6.15;;
27985;SDS011;15453;53.692;10.168;2023-05-10T12:54:51;14.43;;;8.70;;
27985;SDS011;15453;53.692;10.168;2023-05-10T12:57:16;9.18;;;7.03;;
27985;SDS011;15453;53.692;10.168;2023-05-10T12:59:42;9.18;;;7.22;;
27985;SDS011;15453;53.692;10.168;2023-05-10T13:02:08;8.98;;;7.22;;
27985;SDS011;15453;53.692;10.168;2023-05-10T13:04:33;8.40;;;6.57;;
27985;SDS011;15453;53.692;10.168;2023-05-10T13:06:59;10.18;;;6.95;;
27985;SDS011;15453;53.692;10.168;2023-05-10T13:09:24;7.75;;;5.70;;
27985;SDS011;15453;53.692;10.168;2023-05-10T13:11:51;8.18;;;5.68;;
27985;SDS011;15453;53.692;10.168;2023-05-10T13:14:18;7.93;;;6.35;;
27985;SDS011;15453;53.692;10.168;2023-05-10T13:16:45;11.75;;;6.25;;
27985;SDS011;15453;53.692;10.168;2023-05-10T13:19:10;7.53;;;6.15;;
27985;SDS011;15453;53.692;10.168;2023-05-10T13:21:36;8.50;;;6.43;;
27985;SDS011;15453;53.692;10.168;2023-05-10T13:24:01;5.75;;;5.00;;
27985;SDS011;15453;53.692;10.168;2023-05-10T13:26:26;7.10;;;5.15;;
27985;SDS011;15453;53.692;10.168;2023-05-10T13:28:52;6.07;;;5.13;;
27985;SDS011;15453;53.692;10.168;2023-05-10T13:31:20;5.95;;;4.70;;
27985;SDS011;15453;53.692;10.168;2023-05-10T13:33:45;6.55;;;4.95;;
27985;SDS011;15453;53.692;10.168;2023-05-10T13:36:12;7.18;;;4.78;;
27985;SDS011;15453;53.692;10.168;2023-05-10T13:38:37;6.10;;;4.57;;
27985;SDS011;15453;53.692;10.168;2023-05-10T13:41:02;5.38;;;4.70;;
27985;SDS011;15453;53.692;10.168;2023-05-10T13:43:28;4.45;;;4.05;;
27985;SDS011;15453;53.692;10.168;2023-05-10T13:45:54;5.07;;;4.22;;
27985;SDS011;15453;53.692;10.168;2023-05-10T13:48:19;5.63;;;4.22;;
27985;SDS011;15453;53.692;10.168;2023-05-10T13:50:44;6.68;;;4.68;;
27985;SDS011;15453;53.692;10.168;2023-05-10T13:53:11;6.78;;;4.55;;
27985;SDS011;15453;53.692;10.168;2023-05-10T13:55:36;5.53;;;4.10;;
27985;SDS011;15453;53.692;10.168;2023-05-10T13:58:01;5.43;;;4.18;;
27985;SDS011;15453;53.692;10.168;2023-05-10T14:00:26;7.78;;;4.50;;
27985;SDS011;15453;53.692;10.168;2023-05-10T14:02:52;5.07;;;4.32;;
27985;SDS011;15453;53.692;10.168;2023-05-10T14:05:17;4.80;;;3.85;;
27985;SDS011;15453;53.692;10.168;2023-05-10T14:07:42;6.95;;;4.28;;
27985;SDS011;15453;53.692;10.168;2023-05-10T14:10:07;7.95;;;4.50;;
27985;SDS011;15453;53.692;10.168;2023-05-10T14:12:33;4.75;;;4.03;;
27985;SDS011;15453;53.692;10.168;2023-05-10T14:14:58;6.85;;;3.83;;
27985;SDS011;15453;53.692;10.168;2023-05-10T14:17:23;4.22;;;3.45;;
27985;SDS011;15453;53.692;10.168;2023-05-10T14:19:48;5.43;;;3.53;;
27985;SDS011;15453;53.692;10.168;2023-05-10T14:22:14;4.32;;;3.83;;
27985;SDS011;15453;53.692;10.168;2023-05-10T14:24:39;4.47;;;3.75;;
27985;SDS011;15453;53.692;10.168;2023-05-10T14:27:04;4.03;;;3.53;;
27985;SDS011;15453;53.692;10.168;2023-05-10T14:29:30;3.45;;;3.05;;
27985;SDS011;15453;53.692;10.168;2023-05-10T14:31:56;4.20;;;3.22;;
27985;SDS011;15453;53.692;10.168;2023-05-10T14:34:21;4.72;;;3.78;;
27985;SDS011;15453;53.692;10.168;2023-05-10T14:36:46;4.78;;;3.80;;
27985;SDS011;15453;53.692;10.168;2023-05-10T14:39:11;4.65;;;3.88;;
27985;SDS011;15453;53.692;10.168;2023-05-10T14:41:38;5.20;;;3.30;;
27985;SDS011;15453;53.692;10.168;2023-05-10T14:44:05;4.15;;;3.35;;
27985;SDS011;15453;53.692;10.168;2023-05-10T14:46:31;4.20;;;3.35;;
27985;SDS011;15453;53.692;10.168;2023-05-10T14:48:56;5.45;;;3.60;;
27985;SDS011;15453;53.692;10.168;2023-05-10T14:51:21;5.47;;;3.75;;
27985;SDS011;15453;53.692;10.168;2023-05-10T14:53:47;7.35;;;4.47;;
27985;SDS011;15453;53.692;10.168;2023-05-10T14:56:14;4.47;;;3.63;;
27985;SDS011;15453;53.692;10.168;2023-05-10T14:58:39;5.15;;;3.35;;
27985;SDS011;15453;53.692;10.168;2023-05-10T15:01:04;4.55;;;3.90;;
27985;SDS011;15453;53.692;10.168;2023-05-10T15:03:29;6.10;;;4.07;;
27985;SDS011;15453;53.692;10.168;2023-05-10T15:05:55;5.32;;;3.85;;
27985;SDS011;15453;53.692;10.168;2023-05-10T15:08:22;3.47;;;3.17;;
27985;SDS011;15453;53.692;10.168;2023-05-10T15:10:49;4.00;;;3.60;;
27985;SDS011;15453;53.692;10.168;2023-05-10T15:13:14;4.03;;;3.53;;
27985;SDS011;15453;53.692;10.168;2023-05-10T15:15:40;3.97;;;3.05;;